Anzoras — EAZC — position and weather

sailwx.info

Track history (hours):
 
Tides and Currents Weather Stations Pressure Air Temp Water Temp Dewpoint Dewpoint Depression Visibility Wind Speed Wind Dir Waves Ship Positions

Anzoras

Last reported at 2017-Apr-23 01:11 UTC. Time now 2017-Apr-23 12:01 UTC.
Position N 36°05' W 005°04'.

Length 100 m; draft 4.3 m.

Type: Cargo ship. MMSI: 224376000.

Date/timePositionNaut miles runAvg speedWind from/ knotsBaromVisibWave heightAir tempDewpointWater temp
2017-Apr-23 01:11N 36°05' W 005°04'3 9.6
2017-Apr-23 00:55N 36°05' W 005°07'4 8.9
2017-Apr-23 00:29N 36°04' W 005°12'4 8.8
2017-Apr-23 00:00N 36°04' W 005°17'5 9.4
2017-Apr-22 23:30N 36°06' W 005°22'4 8.1
2017-Apr-22 23:01N 36°09' W 005°26'0 0.8
2017-Apr-22 22:25N 36°09' W 005°26'0 0.0
2017-Apr-22 22:01N 36°09' W 005°26'0 0.0
2017-Apr-22 21:29N 36°09' W 005°26'0 0.0
2017-Apr-22 20:58N 36°08' W 005°26'0 0.0
2017-Apr-22 20:29N 36°08' W 005°26'0 0.0
2017-Apr-22 19:55N 36°09' W 005°26'0 0.0
2017-Apr-22 19:25N 36°09' W 005°26'0 0.0
2017-Apr-22 18:56N 36°09' W 005°26'0 0.0
2017-Apr-22 18:25N 36°09' W 005°26'0 0.0
2017-Apr-22 18:00N 36°08' W 005°26'2 3.9
2017-Apr-22 17:30N 36°08' W 005°24'3 6.8
2017-Apr-22 17:00N 36°04' W 005°23'4 8.7
2017-Apr-22 16:30N 36°00' W 005°24'3 6.4
2017-Apr-22 16:00N 35°58' W 005°27'4 7.1
2017-Apr-22 15:25N 35°57' W 005°32'4 7.6
2017-Apr-22 14:53N 35°55' W 005°37'3 7.7
2017-Apr-22 14:28N 35°55' W 005°41'238 5.3
2017-Apr-20 17:27N 38°01' W 009°53'510.8
2017-Apr-20 17:00N 38°06' W 009°54'510.8
2017-Apr-20 16:30N 38°11' W 009°56'510.6
2017-Apr-20 16:00N 38°16' W 009°57'510.5
2017-Apr-20 15:30N 38°21' W 009°59'510.6
2017-Apr-20 15:00N 38°27' W 009°60'1110.6
2017-Apr-20 14:00N 38°37' W 010°03'510.5
2017-Apr-20 13:30N 38°42' W 010°04'510.0
2017-Apr-20 13:00N 38°47' W 010°05'510.0
2017-Apr-20 12:30N 38°52' W 010°05'510.3
2017-Apr-20 12:00N 38°57' W 010°05'510.2
2017-Apr-20 11:30N 39°02' W 010°05'510.1
2017-Apr-20 11:00N 39°07' W 010°05'5 9.7
2017-Apr-20 10:30N 39°12' W 010°05'5 9.7
2017-Apr-20 09:59N 39°17' W 010°05'320 8.0
2017-Apr-18 18:00N 43°43' W 006°07'511.0
2017-Apr-18 17:30N 43°43' W 005°60'611.1
2017-Apr-18 17:00N 43°42' W 005°52'510.4
2017-Apr-18 16:30N 43°40' W 005°46'510.5
2017-Apr-18 16:00N 43°36' W 005°40'3 5.9
2017-Apr-18 15:30N 43°34' W 005°42'0 0.3
2017-Apr-18 15:00N 43°34' W 005°42'0 0.0
2017-Apr-18 14:25N 43°34' W 005°42'0 0.0
2017-Apr-18 13:13N 43°34' W 005°42'0 0.0
2017-Apr-18 12:55N 43°34' W 005°42'0 0.0
2017-Apr-18 12:19N 43°34' W 005°42'0 0.0
2017-Apr-18 11:37N 43°34' W 005°42'0 0.0
2017-Apr-18 11:07N 43°34' W 005°42'0 0.0
2017-Apr-18 10:55N 43°34' W 005°42'0 0.0
2017-Apr-18 10:07N 43°34' W 005°42'0 0.0
2017-Apr-18 09:55N 43°34' W 005°42'0 0.0
2017-Apr-18 09:01N 43°34' W 005°42'0 0.0
2017-Apr-18 08:49N 43°34' W 005°42'0 0.0
2017-Apr-18 08:25N 43°34' W 005°42'0 0.0
2017-Apr-18 07:55N 43°34' W 005°42'0 0.0
2017-Apr-18 07:25N 43°34' W 005°42'0 0.0
2017-Apr-18 06:49N 43°34' W 005°42'0 0.0
2017-Apr-18 06:19N 43°34' W 005°42'0 0.0
2017-Apr-18 05:55N 43°34' W 005°42'0 0.0
2017-Apr-18 05:19N 43°34' W 005°42'0 0.0
2017-Apr-18 04:55N 43°34' W 005°42'0 0.0
2017-Apr-18 04:25N 43°34' W 005°42'0 0.0
2017-Apr-18 03:55N 43°34' W 005°42'0 0.0
2017-Apr-18 03:25N 43°34' W 005°42'0 0.0
2017-Apr-18 02:55N 43°34' W 005°42'0 0.0
2017-Apr-18 02:25N 43°34' W 005°42'0 0.0
2017-Apr-18 01:55N 43°34' W 005°42'0 0.0
2017-Apr-18 01:25N 43°34' W 005°42'0 0.0
2017-Apr-18 00:55N 43°34' W 005°42'0 0.0
2017-Apr-18 00:25N 43°34' W 005°42'0 0.0
2017-Apr-17 23:43N 43°34' W 005°42'0 0.0
2017-Apr-17 23:25N 43°34' W 005°42'0 0.0
2017-Apr-17 22:55N 43°34' W 005°42'0 0.0
2017-Apr-17 22:25N 43°34' W 005°42'0 0.0
2017-Apr-17 21:55N 43°34' W 005°42'0 0.0
2017-Apr-17 21:25N 43°34' W 005°42'0 0.0
2017-Apr-17 19:31N 43°34' W 005°42'0 0.0
2017-Apr-17 19:25N 43°34' W 005°42'0 0.0
2017-Apr-17 18:55N 43°34' W 005°42'0 0.0
2017-Apr-17 18:25N 43°34' W 005°42'0 0.0
2017-Apr-17 17:37N 43°34' W 005°42'0 0.0
2017-Apr-17 17:25N 43°34' W 005°42'0 0.0
2017-Apr-17 16:55N 43°34' W 005°42'0 0.0
2017-Apr-17 16:29N 43°34' W 005°42'0 0.0
2017-Apr-17 15:59N 43°34' W 005°42'0 0.0
2017-Apr-17 15:28N 43°34' W 005°42'0 0.0
2017-Apr-17 14:58N 43°34' W 005°42'0 0.0
2017-Apr-17 14:28N 43°34' W 005°42'0 0.0
2017-Apr-17 13:30N 43°34' W 005°42'0 0.0
2017-Apr-17 12:52N 43°34' W 005°42'0 0.0
2017-Apr-17 12:25N 43°34' W 005°42'0 0.0
2017-Apr-17 11:55N 43°34' W 005°42'0 0.0
2017-Apr-17 11:19N 43°34' W 005°42'0 0.0
2017-Apr-17 10:49N 43°34' W 005°42'0 0.0
2017-Apr-17 10:19N 43°34' W 005°42'0 0.0
2017-Apr-17 09:37N 43°34' W 005°42'0 0.0
2017-Apr-17 09:25N 43°34' W 005°42'0 0.0
2017-Apr-17 08:55N 43°34' W 005°42'0 0.0
2017-Apr-17 08:19N 43°34' W 005°42'0 0.0
2017-Apr-17 07:55N 43°34' W 005°42'0 0.0
2017-Apr-17 07:07N 43°34' W 005°42'0 0.0
2017-Apr-17 06:49N 43°34' W 005°42'0 0.0
2017-Apr-17 06:25N 43°34' W 005°42'0 0.0
2017-Apr-17 05:55N 43°34' W 005°42'0 0.0
2017-Apr-17 05:25N 43°34' W 005°42'0 0.0
2017-Apr-17 04:43N 43°34' W 005°42'0 0.0
2017-Apr-17 04:25N 43°34' W 005°42'0 0.0
2017-Apr-17 03:55N 43°34' W 005°42'0 0.0
2017-Apr-17 03:19N 43°34' W 005°42'0 0.0
2017-Apr-17 02:55N 43°34' W 005°42'0 0.0
2017-Apr-17 02:19N 43°34' W 005°42'0 0.0
2017-Apr-17 01:55N 43°34' W 005°42'0 0.0
2017-Apr-17 01:25N 43°34' W 005°42'0 0.0
2017-Apr-17 00:55N 43°34' W 005°42'0 0.0
2017-Apr-17 00:25N 43°34' W 005°42'0 0.0
2017-Apr-16 23:55N 43°34' W 005°42'0 0.0
2017-Apr-16 19:31N 43°34' W 005°42'0 0.0
2017-Apr-16 19:25N 43°34' W 005°42'0 0.0
2017-Apr-16 18:55N 43°34' W 005°42'0 0.0
2017-Apr-16 18:25N 43°34' W 005°42'0 0.0
2017-Apr-16 17:55N 43°34' W 005°42'0 0.0
2017-Apr-16 17:25N 43°34' W 005°42'0 0.0
2017-Apr-16 16:55N 43°34' W 005°42'0 0.0
2017-Apr-16 16:25N 43°34' W 005°42'0 0.0
2017-Apr-16 15:49N 43°34' W 005°42'0 0.0
2017-Apr-16 15:13N 43°34' W 005°42'0 0.0
2017-Apr-16 14:55N 43°34' W 005°42'0 0.0
2017-Apr-16 14:25N 43°34' W 005°42'0 0.0
2017-Apr-16 13:25N 43°34' W 005°42'0 0.0
2017-Apr-16 12:55N 43°34' W 005°42'0 0.0
2017-Apr-16 12:25N 43°34' W 005°42'0 0.0
2017-Apr-16 11:55N 43°34' W 005°42'0 0.0
2017-Apr-16 11:25N 43°34' W 005°42'0 0.0
2017-Apr-16 10:55N 43°34' W 005°42'0 0.0
2017-Apr-16 10:25N 43°34' W 005°42'0 0.0
2017-Apr-16 09:49N 43°34' W 005°42'0 0.0
2017-Apr-16 09:25N 43°34' W 005°42'0 0.0
2017-Apr-16 08:55N 43°34' W 005°42'0 0.0
2017-Apr-16 08:25N 43°34' W 005°42'0 0.0
2017-Apr-16 07:55N 43°34' W 005°42'0 0.0
2017-Apr-16 07:19N 43°34' W 005°42'0 0.0
2017-Apr-16 06:55N 43°34' W 005°42'0 0.0
2017-Apr-16 06:25N 43°34' W 005°42'0 0.0
2017-Apr-16 05:55N 43°34' W 005°42'0 0.0
2017-Apr-16 05:25N 43°34' W 005°42'0 0.0
2017-Apr-16 04:55N 43°34' W 005°42'0 0.0
2017-Apr-16 04:25N 43°34' W 005°42'0 0.0
2017-Apr-16 03:55N 43°34' W 005°42'0 0.0
2017-Apr-16 03:25N 43°34' W 005°42'0 0.0
2017-Apr-16 02:55N 43°34' W 005°42'0 0.0
2017-Apr-16 02:25N 43°34' W 005°42'0 0.0
2017-Apr-16 01:55N 43°34' W 005°42'0 0.0
2017-Apr-16 01:25N 43°34' W 005°42'0 0.0
2017-Apr-16 00:55N 43°34' W 005°42'0 0.0
2017-Apr-16 00:25N 43°34' W 005°42'0 0.0
2017-Apr-15 23:55N 43°34' W 005°42'0 0.0
2017-Apr-15 23:25N 43°34' W 005°42'0 0.0
2017-Apr-15 19:31N 43°34' W 005°42'0 0.0
2017-Apr-15 19:19N 43°34' W 005°42'0 0.0
2017-Apr-15 18:55N 43°34' W 005°42'0 0.0
2017-Apr-15 18:25N 43°34' W 005°42'0 0.0
2017-Apr-15 17:55N 43°34' W 005°42'0 0.0
2017-Apr-15 17:25N 43°34' W 005°42'0 0.0
2017-Apr-15 16:49N 43°34' W 005°42'0 0.0
2017-Apr-15 16:19N 43°34' W 005°42'0 0.0
2017-Apr-15 15:43N 43°34' W 005°42'0 0.0
2017-Apr-15 15:13N 43°34' W 005°42'0 0.0
2017-Apr-15 14:55N 43°34' W 005°42'0 0.0
2017-Apr-15 14:25N 43°34' W 005°42'0 0.0
2017-Apr-15 13:25N 43°34' W 005°42'0 0.0
2017-Apr-15 11:49N 43°34' W 005°42'0 0.0
2017-Apr-15 11:19N 43°34' W 005°42'0 0.0
2017-Apr-15 11:00N 43°34' W 005°42'1 2.2
2017-Apr-15 10:26N 43°34' W 005°40'3 7.9
2017-Apr-15 10:00N 43°38' W 005°41'  
Track history (hours):
 
Tides and Currents Weather Stations Pressure Air Temp Water Temp Dewpoint Dewpoint Depression Visibility Wind Speed Wind Dir Waves Ship Positions

Anzoras

Last reported at 2017-Apr-23 01:11 UTC. Time now 2017-Apr-23 12:01 UTC.
Position N 36°05' W 005°04'.

Length 100 m; draft 4.3 m.

Type: Cargo ship. MMSI: 224376000.

Date/timePositionNaut miles runAvg speedWind from/ knotsBaromVisibWave heightAir tempDewpointWater temp
2017-Apr-23 01:11N 36°05' W 005°04'3 9.6
2017-Apr-23 00:55N 36°05' W 005°07'4 8.9
2017-Apr-23 00:29N 36°04' W 005°12'4 8.8
2017-Apr-23 00:00N 36°04' W 005°17'5 9.4
2017-Apr-22 23:30N 36°06' W 005°22'4 8.1
2017-Apr-22 23:01N 36°09' W 005°26'0 0.8
2017-Apr-22 22:25N 36°09' W 005°26'0 0.0
2017-Apr-22 22:01N 36°09' W 005°26'0 0.0
2017-Apr-22 21:29N 36°09' W 005°26'0 0.0
2017-Apr-22 20:58N 36°08' W 005°26'0 0.0
2017-Apr-22 20:29N 36°08' W 005°26'0 0.0
2017-Apr-22 19:55N 36°09' W 005°26'0 0.0
2017-Apr-22 19:25N 36°09' W 005°26'0 0.0
2017-Apr-22 18:56N 36°09' W 005°26'0 0.0
2017-Apr-22 18:25N 36°09' W 005°26'0 0.0
2017-Apr-22 18:00N 36°08' W 005°26'2 3.9
2017-Apr-22 17:30N 36°08' W 005°24'3 6.8
2017-Apr-22 17:00N 36°04' W 005°23'4 8.7
2017-Apr-22 16:30N 36°00' W 005°24'3 6.4
2017-Apr-22 16:00N 35°58' W 005°27'4 7.1
2017-Apr-22 15:25N 35°57' W 005°32'4 7.6
2017-Apr-22 14:53N 35°55' W 005°37'3 7.7
2017-Apr-22 14:28N 35°55' W 005°41'238 5.3
2017-Apr-20 17:27N 38°01' W 009°53'510.8
2017-Apr-20 17:00N 38°06' W 009°54'510.8
2017-Apr-20 16:30N 38°11' W 009°56'510.6
2017-Apr-20 16:00N 38°16' W 009°57'510.5
2017-Apr-20 15:30N 38°21' W 009°59'510.6
2017-Apr-20 15:00N 38°27' W 009°60'1110.6
2017-Apr-20 14:00N 38°37' W 010°03'510.5
2017-Apr-20 13:30N 38°42' W 010°04'510.0
2017-Apr-20 13:00N 38°47' W 010°05'510.0
2017-Apr-20 12:30N 38°52' W 010°05'510.3
2017-Apr-20 12:00N 38°57' W 010°05'510.2
2017-Apr-20 11:30N 39°02' W 010°05'510.1
2017-Apr-20 11:00N 39°07' W 010°05'5 9.7
2017-Apr-20 10:30N 39°12' W 010°05'5 9.7
2017-Apr-20 09:59N 39°17' W 010°05'320 8.0
2017-Apr-18 18:00N 43°43' W 006°07'511.0
2017-Apr-18 17:30N 43°43' W 005°60'611.1
2017-Apr-18 17:00N 43°42' W 005°52'510.4
2017-Apr-18 16:30N 43°40' W 005°46'510.5
2017-Apr-18 16:00N 43°36' W 005°40'3 5.9
2017-Apr-18 15:30N 43°34' W 005°42'0 0.3
2017-Apr-18 15:00N 43°34' W 005°42'0 0.0
2017-Apr-18 14:25N 43°34' W 005°42'0 0.0
2017-Apr-18 13:13N 43°34' W 005°42'0 0.0
2017-Apr-18 12:55N 43°34' W 005°42'0 0.0
2017-Apr-18 12:19N 43°34' W 005°42'0 0.0
2017-Apr-18 11:37N 43°34' W 005°42'0 0.0
2017-Apr-18 11:07N 43°34' W 005°42'0 0.0
2017-Apr-18 10:55N 43°34' W 005°42'0 0.0
2017-Apr-18 10:07N 43°34' W 005°42'0 0.0
2017-Apr-18 09:55N 43°34' W 005°42'0 0.0
2017-Apr-18 09:01N 43°34' W 005°42'0 0.0
2017-Apr-18 08:49N 43°34' W 005°42'0 0.0
2017-Apr-18 08:25N 43°34' W 005°42'0 0.0
2017-Apr-18 07:55N 43°34' W 005°42'0 0.0
2017-Apr-18 07:25N 43°34' W 005°42'0 0.0
2017-Apr-18 06:49N 43°34' W 005°42'0 0.0
2017-Apr-18 06:19N 43°34' W 005°42'0 0.0
2017-Apr-18 05:55N 43°34' W 005°42'0 0.0
2017-Apr-18 05:19N 43°34' W 005°42'0 0.0
2017-Apr-18 04:55N 43°34' W 005°42'0 0.0
2017-Apr-18 04:25N 43°34' W 005°42'0 0.0
2017-Apr-18 03:55N 43°34' W 005°42'0 0.0
2017-Apr-18 03:25N 43°34' W 005°42'0 0.0
2017-Apr-18 02:55N 43°34' W 005°42'0 0.0
2017-Apr-18 02:25N 43°34' W 005°42'0 0.0
2017-Apr-18 01:55N 43°34' W 005°42'0 0.0
2017-Apr-18 01:25N 43°34' W 005°42'0 0.0
2017-Apr-18 00:55N 43°34' W 005°42'0 0.0
2017-Apr-18 00:25N 43°34' W 005°42'0 0.0
2017-Apr-17 23:43N 43°34' W 005°42'0 0.0
2017-Apr-17 23:25N 43°34' W 005°42'0 0.0
2017-Apr-17 22:55N 43°34' W 005°42'0 0.0
2017-Apr-17 22:25N 43°34' W 005°42'0 0.0
2017-Apr-17 21:55N 43°34' W 005°42'0 0.0
2017-Apr-17 21:25N 43°34' W 005°42'0 0.0
2017-Apr-17 19:31N 43°34' W 005°42'0 0.0
2017-Apr-17 19:25N 43°34' W 005°42'0 0.0
2017-Apr-17 18:55N 43°34' W 005°42'0 0.0
2017-Apr-17 18:25N 43°34' W 005°42'0 0.0
2017-Apr-17 17:37N 43°34' W 005°42'0 0.0
2017-Apr-17 17:25N 43°34' W 005°42'0 0.0
2017-Apr-17 16:55N 43°34' W 005°42'0 0.0
2017-Apr-17 16:29N 43°34' W 005°42'0 0.0
2017-Apr-17 15:59N 43°34' W 005°42'0 0.0
2017-Apr-17 15:28N 43°34' W 005°42'0 0.0
2017-Apr-17 14:58N 43°34' W 005°42'0 0.0
2017-Apr-17 14:28N 43°34' W 005°42'0 0.0
2017-Apr-17 13:30N 43°34' W 005°42'0 0.0
2017-Apr-17 12:52N 43°34' W 005°42'0 0.0
2017-Apr-17 12:25N 43°34' W 005°42'0 0.0
2017-Apr-17 11:55N 43°34' W 005°42'0 0.0
2017-Apr-17 11:19N 43°34' W 005°42'0 0.0
2017-Apr-17 10:49N 43°34' W 005°42'0 0.0
2017-Apr-17 10:19N 43°34' W 005°42'0 0.0
2017-Apr-17 09:37N 43°34' W 005°42'0 0.0
2017-Apr-17 09:25N 43°34' W 005°42'0 0.0
2017-Apr-17 08:55N 43°34' W 005°42'0 0.0
2017-Apr-17 08:19N 43°34' W 005°42'0 0.0
2017-Apr-17 07:55N 43°34' W 005°42'0 0.0
2017-Apr-17 07:07N 43°34' W 005°42'0 0.0
2017-Apr-17 06:49N 43°34' W 005°42'0 0.0
2017-Apr-17 06:25N 43°34' W 005°42'0 0.0
2017-Apr-17 05:55N 43°34' W 005°42'0 0.0
2017-Apr-17 05:25N 43°34' W 005°42'0 0.0
2017-Apr-17 04:43N 43°34' W 005°42'0 0.0
2017-Apr-17 04:25N 43°34' W 005°42'0 0.0
2017-Apr-17 03:55N 43°34' W 005°42'0 0.0
2017-Apr-17 03:19N 43°34' W 005°42'0 0.0
2017-Apr-17 02:55N 43°34' W 005°42'0 0.0
2017-Apr-17 02:19N 43°34' W 005°42'0 0.0
2017-Apr-17 01:55N 43°34' W 005°42'0 0.0
2017-Apr-17 01:25N 43°34' W 005°42'0 0.0
2017-Apr-17 00:55N 43°34' W 005°42'0 0.0
2017-Apr-17 00:25N 43°34' W 005°42'0 0.0
2017-Apr-16 23:55N 43°34' W 005°42'0 0.0
2017-Apr-16 19:31N 43°34' W 005°42'0 0.0
2017-Apr-16 19:25N 43°34' W 005°42'0 0.0
2017-Apr-16 18:55N 43°34' W 005°42'0 0.0
2017-Apr-16 18:25N 43°34' W 005°42'0 0.0
2017-Apr-16 17:55N 43°34' W 005°42'0 0.0
2017-Apr-16 17:25N 43°34' W 005°42'0 0.0
2017-Apr-16 16:55N 43°34' W 005°42'0 0.0
2017-Apr-16 16:25N 43°34' W 005°42'0 0.0
2017-Apr-16 15:49N 43°34' W 005°42'0 0.0
2017-Apr-16 15:13N 43°34' W 005°42'0 0.0
2017-Apr-16 14:55N 43°34' W 005°42'0 0.0
2017-Apr-16 14:25N 43°34' W 005°42'0 0.0
2017-Apr-16 13:25N 43°34' W 005°42'0 0.0
2017-Apr-16 12:55N 43°34' W 005°42'0 0.0
2017-Apr-16 12:25N 43°34' W 005°42'0 0.0
2017-Apr-16 11:55N 43°34' W 005°42'0 0.0
2017-Apr-16 11:25N 43°34' W 005°42'0 0.0
2017-Apr-16 10:55N 43°34' W 005°42'0 0.0
2017-Apr-16 10:25N 43°34' W 005°42'0 0.0
2017-Apr-16 09:49N 43°34' W 005°42'0 0.0
2017-Apr-16 09:25N 43°34' W 005°42'0 0.0
2017-Apr-16 08:55N 43°34' W 005°42'0 0.0
2017-Apr-16 08:25N 43°34' W 005°42'0 0.0
2017-Apr-16 07:55N 43°34' W 005°42'0 0.0
2017-Apr-16 07:19N 43°34' W 005°42'0 0.0
2017-Apr-16 06:55N 43°34' W 005°42'0 0.0
2017-Apr-16 06:25N 43°34' W 005°42'0 0.0
2017-Apr-16 05:55N 43°34' W 005°42'0 0.0
2017-Apr-16 05:25N 43°34' W 005°42'0 0.0
2017-Apr-16 04:55N 43°34' W 005°42'0 0.0
2017-Apr-16 04:25N 43°34' W 005°42'0 0.0
2017-Apr-16 03:55N 43°34' W 005°42'0 0.0
2017-Apr-16 03:25N 43°34' W 005°42'0 0.0
2017-Apr-16 02:55N 43°34' W 005°42'0 0.0
2017-Apr-16 02:25N 43°34' W 005°42'0 0.0
2017-Apr-16 01:55N 43°34' W 005°42'0 0.0
2017-Apr-16 01:25N 43°34' W 005°42'0 0.0
2017-Apr-16 00:55N 43°34' W 005°42'0 0.0
2017-Apr-16 00:25N 43°34' W 005°42'0 0.0
2017-Apr-15 23:55N 43°34' W 005°42'0 0.0
2017-Apr-15 23:25N 43°34' W 005°42'0 0.0
2017-Apr-15 19:31N 43°34' W 005°42'0 0.0
2017-Apr-15 19:19N 43°34' W 005°42'0 0.0
2017-Apr-15 18:55N 43°34' W 005°42'0 0.0
2017-Apr-15 18:25N 43°34' W 005°42'0 0.0
2017-Apr-15 17:55N 43°34' W 005°42'0 0.0
2017-Apr-15 17:25N 43°34' W 005°42'0 0.0
2017-Apr-15 16:49N 43°34' W 005°42'0 0.0
2017-Apr-15 16:19N 43°34' W 005°42'0 0.0
2017-Apr-15 15:43N 43°34' W 005°42'0 0.0
2017-Apr-15 15:13N 43°34' W 005°42'0 0.0
2017-Apr-15 14:55N 43°34' W 005°42'0 0.0
2017-Apr-15 14:25N 43°34' W 005°42'0 0.0
2017-Apr-15 13:25N 43°34' W 005°42'0 0.0
2017-Apr-15 11:49N 43°34' W 005°42'0 0.0
2017-Apr-15 11:19N 43°34' W 005°42'0 0.0
2017-Apr-15 11:00N 43°34' W 005°42'1 2.2
2017-Apr-15 10:26N 43°34' W 005°40'3 7.9
2017-Apr-15 10:00N 43°38' W 005°41'  

Dump ship's entire track history